createdAt,value
2023-03-06T00:02:15.241Z,0.07
2023-03-06T00:04:42.749Z,0.16
2023-03-06T00:07:10.989Z,0.20
2023-03-06T00:09:38.586Z,0.26
2023-03-06T00:12:09.156Z,0.31
2023-03-06T00:14:37.620Z,0.31
2023-03-06T00:17:05.426Z,0.28
2023-03-06T00:19:33.689Z,0.24
2023-03-06T00:22:01.184Z,0.25
2023-03-06T00:24:30.406Z,0.23
2023-03-06T00:26:58.633Z,0.15
2023-03-06T00:29:26.905Z,0.07
2023-03-06T00:32:00.293Z,-0.01
2023-03-06T00:34:28.600Z,-0.08
2023-03-06T00:36:56.311Z,-0.14
2023-03-06T00:39:24.458Z,-0.25
2023-03-06T00:41:54.377Z,-0.31
2023-03-06T00:44:21.908Z,-0.36
2023-03-06T00:46:49.426Z,-0.41
2023-03-06T00:49:17.049Z,-0.45
2023-03-06T00:51:46.220Z,-0.54
2023-03-06T00:54:13.837Z,-0.58
2023-03-06T00:56:44.269Z,-0.63
2023-03-06T00:59:12.147Z,-0.68
2023-03-06T01:01:39.683Z,-0.72
2023-03-06T01:04:07.749Z,-0.74
2023-03-06T01:06:36.775Z,-0.85
2023-03-06T01:09:05.467Z,-0.89
2023-03-06T01:11:33.223Z,-0.91
2023-03-06T01:14:01.010Z,-0.95
2023-03-06T01:16:29.655Z,-0.97
2023-03-06T01:18:57.313Z,-1.01
2023-03-06T01:21:24.941Z,-1.05
2023-03-06T01:23:52.475Z,-1.09
2023-03-06T01:26:20.079Z,-1.20
2023-03-06T01:28:48.195Z,-1.18
2023-03-06T01:31:16.167Z,-1.23
2023-03-06T01:33:44.372Z,-1.25
2023-03-06T01:36:12.313Z,-1.26
2023-03-06T01:38:39.836Z,-1.25
2023-03-06T01:41:07.791Z,-1.29
2023-03-06T01:43:36.152Z,-1.24
2023-03-06T01:46:25.206Z,-1.25
2023-03-06T01:48:58.310Z,-1.35
2023-03-06T01:51:31.219Z,-1.39
2023-03-06T01:54:00.123Z,-1.44
2023-03-06T01:56:28.033Z,-1.50
2023-03-06T01:58:55.590Z,-1.50
2023-03-06T02:01:23.798Z,-1.50
2023-03-06T02:03:53.032Z,-1.57
2023-03-06T02:06:22.039Z,-1.54
2023-03-06T02:08:51.323Z,-1.56
2023-03-06T02:11:22.670Z,-1.54
2023-03-06T02:13:51.446Z,-1.55
2023-03-06T02:16:25.120Z,-1.57
2023-03-06T02:18:57.389Z,-1.48
2023-03-06T02:21:27.522Z,-1.47
2023-03-06T02:24:13.760Z,-1.49
2023-03-06T02:26:41.436Z,-1.53
2023-03-06T02:29:12.274Z,-1.48
2023-03-06T02:31:39.993Z,-1.61
2023-03-06T02:34:16.702Z,-1.44
2023-03-06T02:36:46.904Z,-1.42
2023-03-06T02:39:14.533Z,-1.37
2023-03-06T02:41:42.146Z,-1.27
2023-03-06T02:44:09.947Z,-1.18
2023-03-06T02:46:37.496Z,-1.17
2023-03-06T02:49:07.820Z,-1.12
2023-03-06T02:51:36.046Z,-1.08
2023-03-06T02:54:04.010Z,-1.09
2023-03-06T02:56:33.065Z,-1.10
2023-03-06T02:59:00.668Z,-1.08
2023-03-06T03:01:29.071Z,-1.05
2023-03-06T03:03:57.088Z,-1.07
2023-03-06T03:06:24.760Z,-1.30
2023-03-06T03:08:53.697Z,-1.25
2023-03-06T03:11:22.963Z,-1.33
2023-03-06T03:13:52.047Z,-1.35
2023-03-06T03:16:24.002Z,-1.44
2023-03-06T03:18:51.819Z,-1.40
2023-03-06T03:21:22.787Z,-1.40
2023-03-06T03:23:50.454Z,-1.41
2023-03-06T03:26:20.272Z,-1.47
2023-03-06T03:28:55.154Z,-1.52
2023-03-06T03:31:23.279Z,-1.56
2023-03-06T03:33:51.375Z,-1.61
2023-03-06T03:36:20.329Z,-1.73
2023-03-06T03:38:49.517Z,-1.73
2023-03-06T03:41:17.412Z,-1.81
2023-03-06T03:43:45.570Z,-1.82
2023-03-06T03:46:13.153Z,-1.83
2023-03-06T03:48:41.921Z,-1.82
2023-03-06T03:51:11.521Z,-1.81
2023-03-06T03:53:43.093Z,-1.83
2023-03-06T03:56:12.053Z,-1.79
2023-03-06T03:58:48.704Z,-1.70
2023-03-06T04:01:16.833Z,-1.60
2023-03-06T04:03:45.803Z,-1.64
2023-03-06T04:06:15.253Z,-1.61
2023-03-06T04:08:44.279Z,-1.63
2023-03-06T04:11:12.289Z,-1.65
2023-03-06T04:13:40.310Z,-1.69
2023-03-06T04:16:08.498Z,-1.73
2023-03-06T04:18:38.688Z,-1.82
2023-03-06T04:21:11.611Z,-1.76
2023-03-06T04:23:39.619Z,-1.71
2023-03-06T04:26:07.346Z,-1.52
2023-03-06T04:28:47.476Z,-1.43
2023-03-06T04:31:18.126Z,-1.36
2023-03-06T04:33:45.933Z,-1.20
2023-03-06T04:36:34.754Z,-0.95
2023-03-06T04:39:09.528Z,-0.83
2023-03-06T04:41:39.898Z,-0.61
2023-03-06T04:44:07.771Z,-0.49
2023-03-06T04:46:35.555Z,-0.42
2023-03-06T04:49:03.939Z,-0.25
2023-03-06T04:51:31.579Z,-0.17
2023-03-06T04:53:59.741Z,-0.03
2023-03-06T04:56:27.314Z,0.15
2023-03-06T04:58:54.878Z,0.28
2023-03-06T05:01:22.582Z,0.42
2023-03-06T05:03:50.337Z,0.52
2023-03-06T05:06:18.162Z,0.68
2023-03-06T05:08:45.716Z,0.82
2023-03-06T05:11:18.632Z,0.98
2023-03-06T05:13:46.494Z,1.15
2023-03-06T05:16:15.651Z,1.45
2023-03-06T05:18:44.251Z,1.71
2023-03-06T05:21:12.329Z,1.99
2023-03-06T05:23:41.294Z,2.30
2023-03-06T05:26:10.494Z,2.68
2023-03-06T05:28:39.373Z,2.98
2023-03-06T05:31:10.878Z,3.26
2023-03-06T05:33:39.571Z,3.17
2023-03-06T05:36:08.789Z,3.34
2023-03-06T05:38:38.070Z,3.33
2023-03-06T05:41:05.815Z,3.39
2023-03-06T05:43:33.603Z,3.36
2023-03-06T05:46:06.198Z,3.33
2023-03-06T05:48:34.492Z,3.45
2023-03-06T05:51:02.475Z,3.52
2023-03-06T05:53:30.193Z,3.76
2023-03-06T05:56:09.251Z,3.69
2023-03-06T05:58:38.412Z,3.60
2023-03-06T06:01:13.734Z,3.94
2023-03-06T06:03:42.198Z,4.00
2023-03-06T06:06:11.181Z,4.10
2023-03-06T06:08:39.341Z,4.19
2023-03-06T06:11:08.028Z,4.10
2023-03-06T06:13:38.380Z,3.98
2023-03-06T06:16:11.751Z,4.35
2023-03-06T06:18:41.439Z,4.47
2023-03-06T06:21:12.877Z,4.50
2023-03-06T06:23:41.549Z,4.58
2023-03-06T06:26:09.787Z,4.76
2023-03-06T06:28:38.847Z,4.84
2023-03-06T06:31:12.371Z,4.96
2023-03-06T06:33:40.812Z,4.90
2023-03-06T06:36:18.774Z,5.12
2023-03-06T06:38:46.413Z,5.27
2023-03-06T06:44:07.194Z,5.17
2023-03-06T06:47:20.949Z,5.41
2023-03-06T06:49:27.841Z,5.55
2023-03-06T06:51:55.512Z,5.53
2023-03-06T06:54:23.248Z,5.75
2023-03-06T06:56:51.554Z,5.96
2023-03-06T06:59:19.405Z,6.17
2023-03-06T07:01:47.912Z,6.26
2023-03-06T07:04:15.888Z,6.09
2023-03-06T07:06:47.359Z,6.23
2023-03-06T07:09:15.396Z,6.18
2023-03-06T07:11:43.020Z,6.48
2023-03-06T07:14:10.969Z,6.65
2023-03-06T07:16:38.642Z,6.92
2023-03-06T07:19:08.214Z,6.94
2023-03-06T07:21:36.823Z,6.87
2023-03-06T07:24:04.911Z,6.88
2023-03-06T07:26:34.731Z,6.93
2023-03-06T07:29:03.762Z,7.12
2023-03-06T07:31:31.572Z,6.87
2023-03-06T07:34:00.190Z,7.14
2023-03-06T07:36:34.202Z,6.84
2023-03-06T07:39:03.468Z,7.21
2023-03-06T07:41:31.170Z,7.44
2023-03-06T07:43:59.796Z,7.26
2023-03-06T07:46:27.692Z,7.45
2023-03-06T07:48:55.680Z,7.47
2023-03-06T07:51:23.375Z,6.80
2023-03-06T07:53:51.233Z,6.97
2023-03-06T07:56:23.593Z,7.34
2023-03-06T07:58:51.689Z,6.83
2023-03-06T08:01:20.442Z,7.01
2023-03-06T08:03:50.274Z,6.71
2023-03-06T08:06:20.216Z,6.79
2023-03-06T08:08:59.538Z,7.18
2023-03-06T08:11:28.674Z,7.03
2023-03-06T08:13:58.486Z,7.05
2023-03-06T08:16:29.629Z,7.48
2023-03-06T08:18:58.742Z,7.48
2023-03-06T08:21:27.872Z,7.51
2023-03-06T08:23:55.583Z,7.45
2023-03-06T08:26:24.972Z,7.55
2023-03-06T08:28:53.583Z,6.62
2023-03-06T08:31:42.031Z,6.59
2023-03-06T08:34:14.559Z,7.00
2023-03-06T08:36:42.428Z,7.09
2023-03-06T08:39:10.844Z,7.15
2023-03-06T08:41:38.883Z,6.90
2023-03-06T08:44:07.120Z,6.99
2023-03-06T08:46:35.130Z,6.44
2023-03-06T08:49:03.203Z,6.27
2023-03-06T08:51:31.716Z,6.64
2023-03-06T08:54:01.953Z,6.47
2023-03-06T08:56:31.484Z,6.61
2023-03-06T08:59:00.166Z,6.29
2023-03-06T09:01:29.763Z,6.63
2023-03-06T09:04:17.334Z,6.80
2023-03-06T09:06:45.965Z,6.83
2023-03-06T09:09:13.699Z,6.80
2023-03-06T09:11:42.945Z,6.80
2023-03-06T09:14:20.150Z,6.91
2023-03-06T09:16:48.131Z,6.72
2023-03-06T09:19:18.757Z,7.26
2023-03-06T09:21:47.004Z,6.88
2023-03-06T09:24:14.866Z,7.34
2023-03-06T09:40:55.102Z,8.21
2023-03-06T09:43:30.700Z,8.50
2023-03-06T09:45:59.086Z,8.50
2023-03-06T09:48:38.527Z,7.83
2023-03-06T09:51:13.631Z,8.10
2023-03-06T09:53:50.407Z,8.34
2023-03-06T09:56:22.686Z,7.79
2023-03-06T09:58:55.638Z,7.89
2023-03-06T10:01:28.523Z,7.78
2023-03-06T10:04:23.898Z,7.70
2023-03-06T10:06:55.791Z,7.64
2023-03-06T10:09:26.610Z,7.20
2023-03-06T10:11:59.701Z,7.45
2023-03-06T10:14:49.275Z,7.11
2023-03-06T10:17:22.250Z,7.09
2023-03-06T10:19:50.419Z,6.79
2023-03-06T10:23:05.405Z,7.66
2023-03-06T10:25:50.201Z,7.07
2023-03-06T10:28:20.016Z,7.20
2023-03-06T10:31:23.296Z,6.99
2023-03-06T10:34:23.379Z,6.85
2023-03-06T10:36:51.429Z,7.35
2023-03-06T10:39:20.660Z,7.31
2023-03-06T10:41:48.734Z,7.06
2023-03-06T10:44:16.380Z,7.38
2023-03-06T10:46:49.123Z,7.00
2023-03-06T10:49:31.745Z,7.22
2023-03-06T10:52:03.790Z,7.45
2023-03-06T10:54:43.092Z,7.34
2023-03-06T10:57:29.939Z,7.19
2023-03-06T10:59:59.854Z,7.14
2023-03-06T11:02:31.860Z,7.13
2023-03-06T11:05:00.757Z,7.25
2023-03-06T11:07:35.018Z,7.61
2023-03-06T11:10:19.531Z,7.97
2023-03-06T11:13:19.766Z,8.08
2023-03-06T11:15:57.009Z,7.58
2023-03-06T11:18:43.991Z,7.26
2023-03-06T11:21:44.294Z,7.63
2023-03-06T11:24:20.871Z,7.82
2023-03-06T11:26:59.189Z,7.69
2023-03-06T11:29:43.681Z,7.53
2023-03-06T11:32:24.588Z,7.96
2023-03-06T11:34:58.917Z,7.32
2023-03-06T11:37:32.170Z,7.52
2023-03-06T11:40:11.615Z,7.70
2023-03-06T11:42:50.261Z,7.79
2023-03-06T11:45:28.120Z,8.01
2023-03-06T11:48:15.086Z,7.31
2023-03-06T11:51:09.455Z,7.23
2023-03-06T11:53:40.397Z,7.31
2023-03-06T11:56:26.290Z,7.90
2023-03-06T11:59:01.227Z,7.98
2023-03-06T12:02:13.198Z,8.12
2023-03-06T12:05:03.269Z,8.49
2023-03-06T12:07:33.750Z,8.07
2023-03-06T12:10:52.654Z,8.18
2023-03-06T12:13:41.369Z,7.61
2023-03-06T12:16:46.319Z,8.23
2023-03-06T12:19:40.700Z,8.36
2023-03-06T12:22:21.503Z,8.10
2023-03-06T12:25:11.211Z,8.29
2023-03-06T12:27:45.873Z,8.38
2023-03-06T12:30:28.025Z,7.96
2023-03-06T12:33:13.580Z,8.12
2023-03-06T12:35:52.895Z,8.55
2023-03-06T12:38:29.568Z,8.42
2023-03-06T12:41:34.661Z,8.03
2023-03-06T12:44:27.152Z,7.92
2023-03-06T12:46:58.588Z,8.19
2023-03-06T12:49:32.350Z,8.73
2023-03-06T12:52:01.363Z,7.94
2023-03-06T12:54:30.487Z,7.95
2023-03-06T12:56:58.719Z,7.84
2023-03-06T12:59:44.709Z,8.17
2023-03-06T13:02:30.866Z,8.14
2023-03-06T13:05:14.384Z,7.66
2023-03-06T13:08:01.954Z,7.65
2023-03-06T13:10:36.743Z,7.28
2023-03-06T13:13:32.842Z,7.25
2023-03-06T13:16:03.964Z,7.30
2023-03-06T13:18:34.483Z,7.03
2023-03-06T13:21:04.602Z,6.59
2023-03-06T13:23:32.372Z,6.86
2023-03-06T13:26:01.301Z,6.77
2023-03-06T13:28:46.386Z,6.78
2023-03-06T13:31:26.436Z,6.93
2023-03-06T13:33:58.160Z,6.64
2023-03-06T13:36:26.752Z,6.72
2023-03-06T13:39:01.621Z,6.72
2023-03-06T13:41:32.422Z,7.12
2023-03-06T13:44:01.793Z,6.69
2023-03-06T13:46:37.407Z,6.80
2023-03-06T13:49:05.281Z,6.77
2023-03-06T13:51:37.654Z,6.79
2023-03-06T13:54:20.334Z,6.67
2023-03-06T13:57:12.424Z,6.59
2023-03-06T13:59:57.001Z,6.55
2023-03-06T14:03:08.584Z,6.41
2023-03-06T14:05:47.363Z,6.53
2023-03-06T14:08:15.685Z,6.62
2023-03-06T14:10:44.321Z,6.51
2023-03-06T14:13:46.900Z,6.48
2023-03-06T14:16:20.835Z,6.33
2023-03-06T14:18:55.551Z,6.25
2023-03-06T14:21:31.127Z,6.40
2023-03-06T14:24:00.864Z,6.28
2023-03-06T14:26:40.846Z,6.28
2023-03-06T14:29:19.971Z,6.29
2023-03-06T14:31:52.770Z,6.34
2023-03-06T14:34:22.078Z,6.90
2023-03-06T14:36:55.275Z,6.53
2023-03-06T14:39:36.617Z,6.21
2023-03-06T14:42:09.168Z,6.37
2023-03-06T14:44:37.162Z,6.37
2023-03-06T14:47:23.524Z,6.49
2023-03-06T14:50:19.471Z,6.42
2023-03-06T14:52:47.896Z,6.37
2023-03-06T14:55:21.900Z,6.38
2023-03-06T14:58:03.817Z,6.09
2023-03-06T15:00:36.914Z,6.24
2023-03-06T15:03:05.959Z,6.31
2023-03-06T15:05:34.864Z,6.30
2023-03-06T15:08:03.999Z,6.23
2023-03-06T15:10:35.617Z,6.26
2023-03-06T15:13:23.119Z,6.24
2023-03-06T15:15:59.520Z,6.37
2023-03-06T15:18:39.450Z,6.57
2023-03-06T15:21:20.341Z,6.44
2023-03-06T15:23:49.137Z,6.59
2023-03-06T15:26:29.262Z,6.39
2023-03-06T15:29:10.314Z,6.26
2023-03-06T15:31:39.926Z,6.18
2023-03-06T15:34:07.987Z,6.24
2023-03-06T15:36:43.029Z,6.57
2023-03-06T15:39:27.331Z,6.50
2023-03-06T15:42:18.347Z,6.62
2023-03-06T15:45:16.170Z,6.59
2023-03-06T15:47:48.124Z,6.61
2023-03-06T15:50:15.843Z,6.59
2023-03-06T15:52:44.512Z,6.53
2023-03-06T15:55:13.408Z,6.51
2023-03-06T15:57:44.083Z,6.45
2023-03-06T16:00:27.984Z,6.37
2023-03-06T16:02:57.620Z,6.18
2023-03-06T16:05:25.532Z,6.19
2023-03-06T16:07:53.351Z,6.15
2023-03-06T16:10:29.819Z,6.14
2023-03-06T16:13:02.698Z,6.14
2023-03-06T16:15:33.271Z,6.06
2023-03-06T16:18:02.552Z,5.89
2023-03-06T16:20:30.355Z,6.03
2023-03-06T16:22:57.953Z,6.13
2023-03-06T16:25:26.447Z,5.85
2023-03-06T16:28:01.348Z,6.03
2023-03-06T16:30:31.517Z,6.20
2023-03-06T16:32:59.541Z,6.25
2023-03-06T16:35:27.485Z,6.28
2023-03-06T16:37:55.249Z,6.17
2023-03-06T16:40:24.747Z,5.89
2023-03-06T16:42:54.084Z,5.93
2023-03-06T16:45:22.875Z,6.04
2023-03-06T16:47:50.650Z,6.04
2023-03-06T16:50:30.099Z,5.95
2023-03-06T16:52:57.941Z,6.03
2023-03-06T16:55:26.680Z,6.02
2023-03-06T16:57:54.394Z,6.11
2023-03-06T17:00:22.491Z,6.18
2023-03-06T17:02:53.420Z,6.14
2023-03-06T17:05:21.240Z,6.01
2023-03-06T17:07:50.710Z,5.92
2023-03-06T17:10:19.343Z,5.78
2023-03-06T17:12:47.705Z,5.77
2023-03-06T17:15:15.918Z,5.70
2023-03-06T17:17:44.606Z,5.66
2023-03-06T17:20:12.996Z,5.58
2023-03-06T17:22:41.873Z,5.51
2023-03-06T17:25:09.768Z,5.43
2023-03-06T17:27:39.588Z,5.41
2023-03-06T17:30:07.729Z,5.34
2023-03-06T17:32:41.300Z,5.33
2023-03-06T17:35:09.508Z,5.31
2023-03-06T17:37:37.439Z,5.21
2023-03-06T17:40:08.361Z,5.17
2023-03-06T17:42:36.041Z,5.13
2023-03-06T17:45:04.532Z,5.11
2023-03-06T17:47:32.421Z,5.05
2023-03-06T17:50:06.064Z,5.02
2023-03-06T17:52:33.957Z,4.93
2023-03-06T17:55:01.646Z,4.89
2023-03-06T17:57:29.534Z,4.89
2023-03-06T17:59:57.329Z,4.90
2023-03-06T18:02:26.855Z,4.89
2023-03-06T18:04:56.609Z,4.91
2023-03-06T18:07:24.675Z,4.91
2023-03-06T18:09:56.706Z,4.86
2023-03-06T18:12:24.366Z,4.79
2023-03-06T18:14:52.348Z,4.69
2023-03-06T18:17:19.981Z,4.70
2023-03-06T18:19:47.961Z,4.67
2023-03-06T18:22:15.906Z,4.66
2023-03-06T18:24:43.489Z,4.60
2023-03-06T18:27:11.127Z,4.51
2023-03-06T18:29:39.448Z,4.30
2023-03-06T18:32:07.402Z,4.54
2023-03-06T18:34:35.114Z,4.69
2023-03-06T18:37:02.686Z,4.63
2023-03-06T18:39:30.397Z,4.66
2023-03-06T18:41:57.964Z,4.68
2023-03-06T18:44:25.887Z,4.73
2023-03-06T18:46:55.651Z,4.82
2023-03-06T18:49:23.544Z,4.86
2023-03-06T18:51:51.258Z,4.81
2023-03-06T18:54:18.913Z,4.86
2023-03-06T18:56:46.911Z,4.91
2023-03-06T18:59:34.391Z,4.94
2023-03-06T19:02:02.128Z,4.87
2023-03-06T19:04:29.926Z,4.93
2023-03-06T19:06:57.689Z,5.02
2023-03-06T19:09:25.295Z,4.94
2023-03-06T19:11:54.829Z,5.02
2023-03-06T19:14:22.839Z,5.05
2023-03-06T19:16:50.518Z,5.15
2023-03-06T19:19:18.458Z,5.26
2023-03-06T19:21:46.244Z,5.14
2023-03-06T19:24:15.790Z,5.29
2023-03-06T19:26:43.782Z,5.23
2023-03-06T19:29:11.687Z,5.26
2023-03-06T19:31:40.007Z,5.28
2023-03-06T19:34:07.831Z,5.29
2023-03-06T19:36:35.703Z,5.25
2023-03-06T19:39:04.490Z,5.19
2023-03-06T19:41:32.144Z,5.21
2023-03-06T19:44:02.424Z,5.26
2023-03-06T19:46:31.960Z,5.24
2023-03-06T19:49:01.236Z,5.18
2023-03-06T19:51:29.146Z,5.20
2023-03-06T19:53:59.248Z,5.13
2023-03-06T19:56:29.040Z,5.16
2023-03-06T19:58:56.851Z,5.13
2023-03-06T20:01:25.669Z,5.16
2023-03-06T20:03:59.874Z,5.11
2023-03-06T20:06:29.928Z,5.17
2023-03-06T20:08:57.849Z,5.06
2023-03-06T20:11:27.171Z,5.09
2023-03-06T20:13:56.910Z,5.09
2023-03-06T20:16:24.484Z,5.10
2023-03-06T20:18:55.436Z,5.18
2023-03-06T20:21:24.511Z,5.18
2023-03-06T20:23:53.361Z,5.17
2023-03-06T20:26:21.152Z,5.26
2023-03-06T20:28:49.529Z,5.20
2023-03-06T20:31:19.467Z,5.18
2023-03-06T20:33:49.060Z,5.13
2023-03-06T20:36:24.772Z,5.17
2023-03-06T20:38:53.097Z,5.07
2023-03-06T20:41:22.808Z,5.25
2023-03-06T20:43:53.444Z,5.27
2023-03-06T20:46:22.558Z,5.31
2023-03-06T20:48:51.282Z,5.33
2023-03-06T20:51:23.209Z,5.36
2023-03-06T20:53:51.865Z,5.43
2023-03-06T20:56:21.221Z,5.37
2023-03-06T20:58:48.892Z,5.47
2023-03-06T21:01:21.540Z,5.48
2023-03-06T21:03:51.738Z,5.46
2023-03-06T21:06:19.810Z,5.49
2023-03-06T21:08:47.957Z,5.53
2023-03-06T21:11:16.144Z,5.43
2023-03-06T21:13:45.771Z,5.46
2023-03-06T21:16:16.591Z,5.45
2023-03-06T21:18:48.716Z,5.53
2023-03-06T21:21:19.375Z,5.50
2023-03-06T21:23:47.467Z,5.43
2023-03-06T21:26:17.037Z,5.64
2023-03-06T21:28:44.971Z,5.66
2023-03-06T21:31:13.465Z,5.50
2023-03-06T21:33:42.287Z,5.56
2023-03-06T21:36:09.918Z,5.64
2023-03-06T21:38:39.405Z,5.54
2023-03-06T21:41:21.257Z,5.59
2023-03-06T21:43:48.902Z,5.47
2023-03-06T21:46:16.709Z,5.62
2023-03-06T21:48:44.605Z,5.79
2023-03-06T21:51:13.674Z,5.81
2023-03-06T21:53:42.565Z,5.76
2023-03-06T21:56:11.002Z,5.79
2023-03-06T21:58:39.114Z,5.62
2023-03-06T22:01:11.136Z,5.73
2023-03-06T22:03:39.903Z,5.87
2023-03-06T22:06:09.674Z,5.75
2023-03-06T22:08:37.966Z,5.92
2023-03-06T22:11:10.408Z,5.85
2023-03-06T22:13:39.518Z,5.98
2023-03-06T22:16:07.654Z,5.82
2023-03-06T22:18:35.548Z,5.86
2023-03-06T22:21:10.269Z,5.90
2023-03-06T22:23:40.429Z,5.77
2023-03-06T22:26:10.073Z,5.71
2023-03-06T22:28:39.612Z,5.84
2023-03-06T22:31:09.052Z,5.65
2023-03-06T22:33:37.057Z,5.77
2023-03-06T22:36:09.722Z,5.91
2023-03-06T22:38:39.323Z,5.78
2023-03-06T22:41:08.356Z,5.75
2023-03-06T22:43:36.397Z,5.82
2023-03-06T22:46:09.201Z,5.85
2023-03-06T22:48:37.588Z,5.73
2023-03-06T22:51:07.450Z,5.78
2023-03-06T22:53:37.702Z,5.87
2023-03-06T22:56:08.139Z,5.84
2023-03-06T22:58:39.277Z,5.82
2023-03-06T23:01:06.787Z,5.78
2023-03-06T23:03:36.371Z,5.74
2023-03-06T23:06:17.059Z,5.74
2023-03-06T23:08:45.637Z,5.77
2023-03-06T23:11:32.207Z,5.78
2023-03-06T23:14:20.298Z,5.80
2023-03-06T23:17:09.386Z,5.81
2023-03-06T23:19:55.499Z,5.67
2023-03-06T23:22:41.785Z,5.77
2023-03-06T23:25:28.308Z,5.78
2023-03-06T23:27:55.874Z,5.67
2023-03-06T23:30:23.821Z,5.73
2023-03-06T23:32:52.172Z,5.71
2023-03-06T23:35:19.918Z,5.79
2023-03-06T23:37:47.621Z,5.77
2023-03-06T23:40:16.543Z,5.85
2023-03-06T23:42:44.182Z,5.94
2023-03-06T23:45:12.036Z,5.92
2023-03-06T23:47:39.965Z,5.81
2023-03-06T23:50:07.932Z,5.87
2023-03-06T23:52:38.310Z,5.82
2023-03-06T23:55:06.912Z,5.89
2023-03-06T23:57:34.850Z,5.96
